createdAt,value
2022-10-14T00:01:03.512Z,8.33
2022-10-14T00:03:30.515Z,6.47
2022-10-14T00:05:57.337Z,10.10
2022-10-14T00:08:24.598Z,11.90
2022-10-14T00:10:51.415Z,11.83
2022-10-14T00:13:18.228Z,13.27
2022-10-14T00:15:45.146Z,11.90
2022-10-14T00:18:13.327Z,11.00
2022-10-14T00:20:40.142Z,13.20
2022-10-14T00:23:07.120Z,10.63
2022-10-14T00:25:38.325Z,11.27
2022-10-14T00:28:05.157Z,11.27
2022-10-14T00:30:31.963Z,9.50
2022-10-14T00:32:58.766Z,8.13
2022-10-14T00:35:26.986Z,9.30
2022-10-14T00:37:53.786Z,11.97
2022-10-14T00:40:20.658Z,13.13
2022-10-14T00:42:47.440Z,9.50
2022-10-14T00:45:19.545Z,14.43
2022-10-14T00:47:47.587Z,8.23
2022-10-14T00:50:15.883Z,10.60
2022-10-14T00:52:44.836Z,10.97
2022-10-14T00:55:16.238Z,17.47
2022-10-14T00:57:43.940Z,6.93
2022-10-14T01:00:14.240Z,10.97
2022-10-14T01:02:41.349Z,10.83
2022-10-14T01:05:10.953Z,8.17
2022-10-14T01:07:58.587Z,11.80
2022-10-14T01:10:32.072Z,12.77
2022-10-14T01:13:08.683Z,7.63
2022-10-14T01:15:40.933Z,9.17
2022-10-14T01:18:20.946Z,12.80
2022-10-14T01:21:03.507Z,11.57
2022-10-14T01:24:00.906Z,11.80
2022-10-14T01:26:47.601Z,15.57
2022-10-14T01:29:26.005Z,17.27
2022-10-14T01:32:01.440Z,16.03
2022-10-14T01:34:34.276Z,10.73
2022-10-14T01:37:05.922Z,15.10
2022-10-14T01:39:37.369Z,13.93
2022-10-14T01:42:08.592Z,8.60
2022-10-14T01:44:38.870Z,9.70
2022-10-14T01:47:09.438Z,10.17
2022-10-14T01:49:39.667Z,15.27
2022-10-14T01:52:10.303Z,20.20
2022-10-14T01:54:41.467Z,9.20
2022-10-14T01:57:13.291Z,15.03
2022-10-14T01:59:41.663Z,10.17
2022-10-14T02:02:11.495Z,9.20
2022-10-14T02:04:38.354Z,13.00
2022-10-14T02:07:08.808Z,13.73
2022-10-14T02:09:47.266Z,10.03
2022-10-14T02:12:25.293Z,7.90
2022-10-14T02:15:02.200Z,9.37
2022-10-14T02:17:35.275Z,12.70
2022-10-14T02:20:08.339Z,11.83
2022-10-14T02:22:39.537Z,12.00
2022-10-14T02:25:11.163Z,17.30
2022-10-14T02:27:39.398Z,11.27
2022-10-14T02:30:07.416Z,11.40
2022-10-14T02:32:36.987Z,14.63
2022-10-14T02:35:06.281Z,14.80
2022-10-14T02:37:34.581Z,8.20
2022-10-14T02:40:09.066Z,10.03
2022-10-14T02:42:36.052Z,12.20
2022-10-14T02:45:02.924Z,11.77
2022-10-14T02:47:29.717Z,10.97
2022-10-14T02:49:57.927Z,11.13
2022-10-14T02:52:24.943Z,12.07
2022-10-14T02:54:51.816Z,15.70
2022-10-14T02:57:18.618Z,17.60
2022-10-14T02:59:45.369Z,23.03
2022-10-14T03:02:12.189Z,12.37
2022-10-14T03:04:39.058Z,22.23
2022-10-14T03:07:07.233Z,9.23
2022-10-14T03:09:34.043Z,15.50
2022-10-14T03:12:00.890Z,10.23
2022-10-14T03:14:27.796Z,14.70
2022-10-14T03:16:54.554Z,11.77
2022-10-14T03:19:21.445Z,15.20
2022-10-14T03:21:48.779Z,19.13
2022-10-14T03:24:16.978Z,18.00
2022-10-14T03:26:43.711Z,12.20
2022-10-14T03:29:10.601Z,13.53
2022-10-14T03:31:37.381Z,16.23
2022-10-14T03:34:04.179Z,14.93
2022-10-14T03:36:31.056Z,13.80
2022-10-14T03:38:57.866Z,16.93
2022-10-14T03:41:26.344Z,16.10
2022-10-14T03:43:53.249Z,22.83
2022-10-14T03:46:20.093Z,18.90
2022-10-14T03:48:47.136Z,15.37
2022-10-14T03:51:13.977Z,14.77
2022-10-14T03:53:40.848Z,13.10
2022-10-14T03:56:08.128Z,12.40
2022-10-14T03:58:36.407Z,18.13
2022-10-14T04:01:03.447Z,12.70
2022-10-14T04:03:30.343Z,14.13
2022-10-14T04:05:57.229Z,12.90
2022-10-14T04:08:24.204Z,16.10
2022-10-14T04:10:52.685Z,14.03
2022-10-14T04:13:19.690Z,16.00
2022-10-14T04:15:47.865Z,11.10
2022-10-14T04:18:14.619Z,19.53
2022-10-14T04:20:41.446Z,14.83
2022-10-14T04:23:08.334Z,16.63
2022-10-14T04:25:37.643Z,16.77
2022-10-14T04:28:04.699Z,15.83
2022-10-14T04:30:31.447Z,13.80
2022-10-14T04:32:59.602Z,12.87
2022-10-14T04:35:26.451Z,7.17
2022-10-14T04:37:53.306Z,15.23
2022-10-14T04:40:20.098Z,13.70
2022-10-14T04:42:46.926Z,14.03
2022-10-14T04:45:13.937Z,11.33
2022-10-14T04:47:43.839Z,11.10
2022-10-14T04:50:14.538Z,10.37
2022-10-14T04:52:41.334Z,13.00
2022-10-14T04:55:08.954Z,13.40
2022-10-14T04:57:35.811Z,15.40
2022-10-14T05:00:02.970Z,9.10
2022-10-14T05:02:29.706Z,12.77
2022-10-14T05:04:56.589Z,15.90
2022-10-14T05:07:24.903Z,15.23
2022-10-14T05:09:55.581Z,13.00
2022-10-14T05:12:23.838Z,11.40
2022-10-14T05:14:50.834Z,9.87
2022-10-14T05:17:17.701Z,13.50
2022-10-14T05:19:44.446Z,13.07
2022-10-14T05:22:11.261Z,8.40
2022-10-14T05:24:39.609Z,11.13
2022-10-14T05:27:06.715Z,11.93
2022-10-14T05:29:33.509Z,11.17
2022-10-14T05:32:00.282Z,15.73
2022-10-14T05:34:27.107Z,11.57
2022-10-14T05:36:53.922Z,14.57
2022-10-14T05:39:20.710Z,10.03
2022-10-14T05:41:48.908Z,8.97
2022-10-14T05:44:15.720Z,12.23
2022-10-14T05:46:42.515Z,19.33
2022-10-14T05:49:10.561Z,13.00
2022-10-14T05:51:37.707Z,13.33
2022-10-14T05:54:04.722Z,12.23
2022-10-14T05:56:31.549Z,13.93
2022-10-14T05:58:59.664Z,19.00
2022-10-14T06:01:26.473Z,17.33
2022-10-14T06:06:37.331Z,20.57
2022-10-14T06:09:25.313Z,26.20
2022-10-14T06:11:52.080Z,19.37
2022-10-14T06:14:20.184Z,29.90
2022-10-14T06:16:49.632Z,23.27
2022-10-14T06:19:16.550Z,25.57
2022-10-14T06:21:43.354Z,24.73
2022-10-14T06:24:10.487Z,25.70
2022-10-14T06:26:37.511Z,22.50
2022-10-14T06:29:04.387Z,17.00
2022-10-14T06:31:32.798Z,22.20
2022-10-14T06:34:00.024Z,34.93
2022-10-14T06:36:26.827Z,21.07
2022-10-14T06:38:54.360Z,21.67
2022-10-14T06:41:21.172Z,22.77
2022-10-14T06:43:47.943Z,31.80
2022-10-14T06:46:14.699Z,19.97
2022-10-14T06:48:45.783Z,13.87
2022-10-14T06:51:16.167Z,22.97
2022-10-14T06:53:42.985Z,18.07
2022-10-14T06:56:10.010Z,20.07
2022-10-14T06:58:36.791Z,24.33
2022-10-14T07:01:04.943Z,23.03
2022-10-14T07:03:31.759Z,18.13
2022-10-14T07:06:03.136Z,28.10
2022-10-14T07:08:29.957Z,16.70
2022-10-14T07:10:56.725Z,16.80
2022-10-14T07:13:23.478Z,20.60
2022-10-14T07:15:50.502Z,24.00
2022-10-14T07:18:17.320Z,24.27
2022-10-14T07:20:44.065Z,20.90
2022-10-14T07:23:12.353Z,22.70
2022-10-14T07:25:39.117Z,21.33
2022-10-14T07:28:06.320Z,26.47
2022-10-14T07:30:33.411Z,21.13
2022-10-14T07:33:00.345Z,24.83
2022-10-14T07:35:27.543Z,28.87
2022-10-14T07:37:55.344Z,24.43
2022-10-14T07:40:23.589Z,18.30
2022-10-14T07:42:50.399Z,28.47
2022-10-14T07:45:17.476Z,24.90
2022-10-14T07:47:49.872Z,29.93
2022-10-14T07:50:16.999Z,25.17
2022-10-14T07:52:44.159Z,29.70
2022-10-14T07:55:11.373Z,27.97
2022-10-14T07:57:39.482Z,29.37
2022-10-14T08:00:07.836Z,31.50
2022-10-14T08:02:34.866Z,28.57
2022-10-14T08:07:49.840Z,31.03
2022-10-14T08:10:16.652Z,34.00
2022-10-14T08:12:44.715Z,24.53
2022-10-14T08:15:11.501Z,26.40
2022-10-14T08:17:38.188Z,29.37
2022-10-14T08:20:06.027Z,31.03
2022-10-14T08:22:32.798Z,32.13
2022-10-14T08:24:59.569Z,27.93
2022-10-14T08:27:26.279Z,32.47
2022-10-14T08:29:54.568Z,24.13
2022-10-14T08:32:21.559Z,26.40
2022-10-14T08:34:48.505Z,32.27
2022-10-14T08:37:15.297Z,25.97
2022-10-14T08:39:42.038Z,27.93
2022-10-14T08:42:26.921Z,28.07
2022-10-14T08:44:57.715Z,29.60
2022-10-14T08:47:31.370Z,28.50
2022-10-14T08:50:02.037Z,28.17
2022-10-14T08:52:37.393Z,24.87
2022-10-14T08:55:19.322Z,27.70
2022-10-14T08:57:51.674Z,35.20
2022-10-14T09:00:21.815Z,29.50
2022-10-14T09:02:50.924Z,27.93
2022-10-14T09:05:20.793Z,26.00
2022-10-14T09:07:48.841Z,29.27
2022-10-14T09:10:22.992Z,36.90
2022-10-14T09:12:51.417Z,29.87
2022-10-14T09:15:26.574Z,28.30
2022-10-14T09:20:31.526Z,30.80
2022-10-14T09:23:09.040Z,27.17
2022-10-14T09:25:39.943Z,26.20
2022-10-14T09:28:08.674Z,30.23
2022-10-14T09:30:38.557Z,30.60
2022-10-14T09:33:06.705Z,27.20
2022-10-14T09:35:36.574Z,26.23
2022-10-14T09:38:03.672Z,28.47
2022-10-14T09:40:32.008Z,26.47
2022-10-14T09:43:02.755Z,30.90
2022-10-14T09:45:45.978Z,27.33
2022-10-14T09:48:16.906Z,27.63
2022-10-14T09:50:49.889Z,24.87
2022-10-14T09:53:21.440Z,24.87
2022-10-14T09:55:52.339Z,27.80
2022-10-14T09:58:24.648Z,24.00
2022-10-14T10:00:56.260Z,22.27
2022-10-14T10:03:29.504Z,29.77
2022-10-14T10:06:05.022Z,24.00
2022-10-14T10:08:32.048Z,33.50
2022-10-14T10:11:05.547Z,28.10
2022-10-14T10:13:36.904Z,25.30
2022-10-14T10:16:06.041Z,26.20
2022-10-14T10:18:34.358Z,22.83
2022-10-14T10:21:03.834Z,27.40
2022-10-14T10:23:30.590Z,22.70
2022-10-14T10:26:15.649Z,23.33
2022-10-14T10:28:46.013Z,17.97
2022-10-14T10:31:23.737Z,15.33
2022-10-14T10:33:58.538Z,16.77
2022-10-14T10:36:30.396Z,14.47
2022-10-14T10:38:58.998Z,13.67
2022-10-14T10:41:45.341Z,20.10
2022-10-14T10:44:47.080Z,14.03
2022-10-14T10:47:28.611Z,12.73
2022-10-14T10:50:11.868Z,10.17
2022-10-14T10:52:51.870Z,11.23
2022-10-14T10:55:28.548Z,9.80
2022-10-14T10:58:08.992Z,6.77
2022-10-14T11:00:45.535Z,11.23
2022-10-14T11:03:29.681Z,9.30
2022-10-14T11:06:06.902Z,8.07
2022-10-14T11:08:46.113Z,6.83
2022-10-14T11:11:32.404Z,9.87
2022-10-14T11:14:28.536Z,12.53
2022-10-14T11:17:03.985Z,6.87
2022-10-14T11:19:40.261Z,9.03
2022-10-14T11:22:20.159Z,8.77
2022-10-14T11:24:56.296Z,9.40
2022-10-14T11:27:31.576Z,8.57
2022-10-14T11:30:13.822Z,10.93
2022-10-14T11:32:58.467Z,10.97
2022-10-14T11:35:37.129Z,9.60
2022-10-14T11:38:17.398Z,10.40
2022-10-14T11:40:50.678Z,11.00
2022-10-14T11:43:25.267Z,14.47
2022-10-14T11:45:57.242Z,11.07
2022-10-14T11:48:30.229Z,12.37
2022-10-14T11:51:05.304Z,12.20
2022-10-14T11:53:45.421Z,10.57
2022-10-14T11:56:23.273Z,10.77
2022-10-14T11:58:51.540Z,9.57
2022-10-14T12:01:24.879Z,9.23
2022-10-14T12:03:57.644Z,8.70
2022-10-14T12:06:29.182Z,9.17
2022-10-14T12:08:59.979Z,7.10
2022-10-14T12:11:30.599Z,8.63
2022-10-14T12:14:04.592Z,12.07
2022-10-14T12:16:32.165Z,5.70
2022-10-14T12:18:58.951Z,7.50
2022-10-14T12:21:32.598Z,5.93
2022-10-14T12:24:05.712Z,7.07
2022-10-14T12:26:50.312Z,5.73
2022-10-14T12:29:20.131Z,6.20
2022-10-14T12:31:50.585Z,4.80
2022-10-14T12:34:32.070Z,5.10
2022-10-14T12:36:58.991Z,5.07
2022-10-14T12:39:41.737Z,5.27
2022-10-14T12:42:13.008Z,4.90
2022-10-14T12:44:45.861Z,7.30
2022-10-14T12:47:21.682Z,5.20
2022-10-14T12:49:51.919Z,5.33
2022-10-14T12:52:23.264Z,6.30
2022-10-14T12:57:27.922Z,6.97
2022-10-14T12:59:57.295Z,6.07
2022-10-14T13:02:30.376Z,5.07
2022-10-14T13:04:57.290Z,5.87
2022-10-14T13:07:46.381Z,6.30
2022-10-14T13:10:46.438Z,4.67
2022-10-14T13:13:58.713Z,4.73
2022-10-14T13:17:05.154Z,4.80
2022-10-14T13:19:42.978Z,3.50
2022-10-14T13:22:40.681Z,4.63
2022-10-14T13:25:19.873Z,4.63
2022-10-14T13:28:04.330Z,7.07
2022-10-14T13:30:39.391Z,6.47
2022-10-14T13:33:15.965Z,3.60
2022-10-14T13:36:00.103Z,4.77
2022-10-14T13:38:27.776Z,4.67
2022-10-14T13:40:56.570Z,3.47
2022-10-14T13:43:29.272Z,3.80
2022-10-14T13:46:03.734Z,3.67
2022-10-14T13:48:33.310Z,3.77
2022-10-14T13:51:31.839Z,4.40
2022-10-14T13:54:14.706Z,2.60
2022-10-14T13:56:41.530Z,2.50
2022-10-14T13:59:32.987Z,3.80
2022-10-14T14:02:12.888Z,2.10
2022-10-14T14:04:39.912Z,3.40
2022-10-14T14:07:47.356Z,3.03
2022-10-14T14:10:00.446Z,4.13
2022-10-14T14:12:27.603Z,3.27
2022-10-14T14:14:59.557Z,2.77
2022-10-14T14:17:28.631Z,2.57
2022-10-14T14:19:55.656Z,2.07
2022-10-14T14:22:25.200Z,3.40
2022-10-14T14:24:52.023Z,1.40
2022-10-14T14:27:21.454Z,3.70
2022-10-14T14:29:50.846Z,1.63
2022-10-14T14:32:21.057Z,1.10
2022-10-14T14:34:49.713Z,1.30
2022-10-14T14:37:47.817Z,0.97
2022-10-14T14:40:18.091Z,1.57
2022-10-14T14:42:47.779Z,0.90
2022-10-14T14:45:18.120Z,1.40
2022-10-14T14:47:47.217Z,1.90
2022-10-14T14:50:31.982Z,1.47
2022-10-14T14:53:02.590Z,1.63
2022-10-14T14:55:43.281Z,2.20
2022-10-14T14:58:24.709Z,2.10
2022-10-14T15:00:52.366Z,1.23
2022-10-14T15:03:21.920Z,2.43
2022-10-14T15:05:55.944Z,1.60
2022-10-14T15:08:25.034Z,1.93
2022-10-14T15:10:55.331Z,5.00
2022-10-14T15:13:28.658Z,2.40
2022-10-14T15:15:55.861Z,2.00
2022-10-14T15:18:25.211Z,1.63
2022-10-14T15:20:52.067Z,3.20
2022-10-14T15:23:39.245Z,1.40
2022-10-14T15:26:30.857Z,3.23
2022-10-14T15:29:17.135Z,1.80
2022-10-14T15:31:45.795Z,1.57
2022-10-14T15:34:20.357Z,2.10
2022-10-14T15:36:51.072Z,1.50
2022-10-14T15:39:17.971Z,3.53
2022-10-14T15:41:44.955Z,2.00
2022-10-14T15:44:11.789Z,1.40
2022-10-14T15:46:39.833Z,2.80
2022-10-14T15:49:14.552Z,1.73
2022-10-14T15:51:42.794Z,2.80
2022-10-14T15:54:10.665Z,2.00
2022-10-14T15:56:37.496Z,2.60
2022-10-14T15:59:04.234Z,2.30
2022-10-14T16:01:33.187Z,4.20
2022-10-14T16:04:00.343Z,2.73
2022-10-14T16:06:27.045Z,2.10
2022-10-14T16:08:55.128Z,2.23
2022-10-14T16:11:23.561Z,2.97
2022-10-14T16:13:50.256Z,3.70
2022-10-14T16:16:21.790Z,2.33
2022-10-14T16:18:48.541Z,2.80
2022-10-14T16:21:16.433Z,4.13
2022-10-14T16:23:43.470Z,3.77
2022-10-14T16:26:11.544Z,2.10
2022-10-14T16:28:38.284Z,2.87
2022-10-14T16:31:05.748Z,2.60
2022-10-14T16:33:32.518Z,2.17
2022-10-14T16:35:59.347Z,3.70
2022-10-14T16:38:26.274Z,6.90
2022-10-14T16:40:56.659Z,3.13
2022-10-14T16:43:25.376Z,2.83
2022-10-14T16:45:52.133Z,4.33
2022-10-14T16:48:19.561Z,5.70
2022-10-14T16:50:49.534Z,2.97
2022-10-14T16:53:16.487Z,3.10
2022-10-14T16:55:43.216Z,4.57
2022-10-14T16:58:10.052Z,2.60
2022-10-14T17:00:38.166Z,2.63
2022-10-14T17:03:04.984Z,3.10
2022-10-14T17:05:31.779Z,3.27
2022-10-14T17:07:58.566Z,5.23
2022-10-14T17:10:25.258Z,2.50
2022-10-14T17:12:52.004Z,3.40
2022-10-14T17:15:18.887Z,3.40
2022-10-14T17:17:46.936Z,2.00
2022-10-14T17:20:13.668Z,2.70
2022-10-14T17:22:40.493Z,2.50
2022-10-14T17:25:07.992Z,2.83
2022-10-14T17:27:34.776Z,4.13
2022-10-14T17:30:01.593Z,3.97
2022-10-14T17:32:28.537Z,3.00
2022-10-14T17:34:56.668Z,6.53
2022-10-14T17:37:23.393Z,3.07
2022-10-14T17:39:50.104Z,2.23
2022-10-14T17:42:16.849Z,2.60
2022-10-14T17:44:44.035Z,3.47
2022-10-14T17:47:10.975Z,2.43
2022-10-14T17:49:37.744Z,3.60
2022-10-14T17:52:05.780Z,2.70
2022-10-14T17:54:32.497Z,2.77
2022-10-14T17:56:59.180Z,5.73
2022-10-14T17:59:25.936Z,4.27
2022-10-14T18:02:08.103Z,6.00
2022-10-14T18:04:34.879Z,4.10
2022-10-14T18:07:01.608Z,6.17
2022-10-14T18:09:29.712Z,7.03
2022-10-14T18:12:08.263Z,7.20
2022-10-14T18:14:36.157Z,7.97
2022-10-14T18:17:02.865Z,3.40
2022-10-14T18:19:29.625Z,4.43
2022-10-14T18:21:56.312Z,3.20
2022-10-14T18:24:23.073Z,4.97
2022-10-14T18:26:51.797Z,6.80
2022-10-14T18:29:18.544Z,8.80
2022-10-14T18:31:45.753Z,7.20
2022-10-14T18:34:12.660Z,5.00
2022-10-14T18:36:39.841Z,4.50
2022-10-14T18:39:10.012Z,6.90
2022-10-14T18:41:36.803Z,3.80
2022-10-14T18:44:05.837Z,9.07
2022-10-14T18:46:34.024Z,5.40
2022-10-14T18:49:02.497Z,6.00
2022-10-14T18:51:31.168Z,3.57
2022-10-14T18:54:00.056Z,3.77
2022-10-14T18:56:28.747Z,5.40
2022-10-14T18:58:57.638Z,9.67
2022-10-14T19:01:26.675Z,3.93
2022-10-14T19:03:54.198Z,5.73
2022-10-14T19:06:22.046Z,4.30
2022-10-14T19:08:49.189Z,2.67
2022-10-14T19:11:18.111Z,4.20
2022-10-14T19:13:45.953Z,4.10
2022-10-14T19:16:16.902Z,5.23
2022-10-14T19:18:45.289Z,4.53
2022-10-14T19:21:14.952Z,4.17
2022-10-14T19:23:43.479Z,4.67
2022-10-14T19:26:12.181Z,3.47
2022-10-14T19:28:39.043Z,4.07
2022-10-14T19:31:06.411Z,5.37
2022-10-14T19:33:35.122Z,5.20
2022-10-14T19:36:03.460Z,4.13
2022-10-14T19:38:30.409Z,3.97
2022-10-14T19:41:00.652Z,5.23
2022-10-14T19:43:28.200Z,4.20
2022-10-14T19:45:55.386Z,3.77
2022-10-14T19:48:22.489Z,3.40
2022-10-14T19:50:49.219Z,2.43
2022-10-14T19:53:17.441Z,5.40
2022-10-14T19:55:44.286Z,4.57
2022-10-14T19:58:11.059Z,4.40
2022-10-14T20:00:37.816Z,3.50
2022-10-14T20:03:04.588Z,4.67
2022-10-14T20:05:31.349Z,5.77
2022-10-14T20:07:58.220Z,3.10
2022-10-14T20:10:26.382Z,4.97
2022-10-14T20:12:53.278Z,3.80
2022-10-14T20:15:20.038Z,3.77
2022-10-14T20:17:46.729Z,4.70
2022-10-14T20:20:14.928Z,4.37
2022-10-14T20:22:41.661Z,4.40
2022-10-14T20:25:08.897Z,6.37
2022-10-14T20:27:37.036Z,4.90
2022-10-14T20:30:04.567Z,7.10
2022-10-14T20:32:31.373Z,4.17
2022-10-14T20:34:58.133Z,3.50
2022-10-14T20:37:28.028Z,4.90
2022-10-14T20:39:55.101Z,4.20
2022-10-14T20:42:21.854Z,4.80
2022-10-14T20:44:49.934Z,5.30
2022-10-14T20:47:16.887Z,3.93
2022-10-14T20:49:43.624Z,3.33
2022-10-14T20:52:10.493Z,4.50
2022-10-14T20:54:37.414Z,4.27
2022-10-14T20:57:04.430Z,4.90
2022-10-14T20:59:31.186Z,5.97
2022-10-14T21:01:59.272Z,5.80
2022-10-14T21:04:26.019Z,5.00
2022-10-14T21:06:52.791Z,5.20
2022-10-14T21:09:19.544Z,6.23
2022-10-14T21:11:46.377Z,4.70
2022-10-14T21:14:13.264Z,5.97
2022-10-14T21:16:40.089Z,6.10
2022-10-14T21:19:10.101Z,6.20
2022-10-14T21:21:38.842Z,4.83
2022-10-14T21:24:06.322Z,6.07
2022-10-14T21:26:33.307Z,5.13
2022-10-14T21:29:01.153Z,5.67
2022-10-14T21:31:28.066Z,3.93
2022-10-14T21:33:55.392Z,6.67
2022-10-14T21:36:23.995Z,5.23
2022-10-14T21:38:51.019Z,4.73
2022-10-14T21:41:18.355Z,5.33
2022-10-14T21:43:45.275Z,5.33
2022-10-14T21:46:13.591Z,5.77
2022-10-14T21:48:41.470Z,7.30
2022-10-14T21:51:10.240Z,6.50
2022-10-14T21:53:39.418Z,5.80
2022-10-14T21:56:07.104Z,5.13
2022-10-14T21:58:34.776Z,7.57
2022-10-14T22:01:03.860Z,6.60
2022-10-14T22:03:31.005Z,7.33
2022-10-14T22:05:58.977Z,4.80
2022-10-14T22:08:29.718Z,5.50
2022-10-14T22:10:58.402Z,4.83
2022-10-14T22:13:25.223Z,6.03
2022-10-14T22:15:52.351Z,6.70
2022-10-14T22:18:19.156Z,5.17
2022-10-14T22:20:45.983Z,7.50
2022-10-14T22:23:12.947Z,7.17
2022-10-14T22:25:39.698Z,5.80
2022-10-14T22:28:08.376Z,9.67
2022-10-14T22:30:35.289Z,6.37
2022-10-14T22:33:02.087Z,6.53
2022-10-14T22:35:29.024Z,5.57
2022-10-14T22:37:55.763Z,5.83
2022-10-14T22:40:22.597Z,9.60
2022-10-14T22:42:51.405Z,5.37
2022-10-14T22:45:19.963Z,10.60
2022-10-14T22:47:46.921Z,8.33
2022-10-14T22:50:13.691Z,7.97
2022-10-14T22:52:40.468Z,6.73
2022-10-14T22:55:08.894Z,8.40
2022-10-14T22:57:35.702Z,5.83
2022-10-14T23:00:03.573Z,8.20
2022-10-14T23:02:31.831Z,6.23
2022-10-14T23:04:58.729Z,6.10
2022-10-14T23:07:25.737Z,5.77
2022-10-14T23:09:52.460Z,6.87
2022-10-14T23:12:19.183Z,7.73
2022-10-14T23:14:45.914Z,5.00
2022-10-14T23:17:12.661Z,7.20
2022-10-14T23:19:40.748Z,5.40
2022-10-14T23:22:07.449Z,5.87
2022-10-14T23:24:34.238Z,7.30
2022-10-14T23:27:00.923Z,10.07
2022-10-14T23:29:27.644Z,10.13
2022-10-14T23:31:54.331Z,4.40
2022-10-14T23:34:21.034Z,6.20
2022-10-14T23:36:49.177Z,7.53
2022-10-14T23:39:16.027Z,7.83
2022-10-14T23:41:42.792Z,7.70
2022-10-14T23:44:11.306Z,7.67
2022-10-14T23:46:38.496Z,6.63
2022-10-14T23:49:07.473Z,5.83
2022-10-14T23:51:40.951Z,8.53
2022-10-14T23:54:09.182Z,6.10
2022-10-14T23:56:35.937Z,11.77
2022-10-14T23:59:02.699Z,12.03
